createdAt,value
2018-06-28T00:00:38.325Z,51.20
2018-06-28T00:03:06.795Z,51.30
2018-06-28T00:05:35.184Z,51.30
2018-06-28T00:08:03.599Z,51.30
2018-06-28T00:10:31.932Z,51.40
2018-06-28T00:13:00.300Z,51.60
2018-06-28T00:15:28.694Z,51.80
2018-06-28T00:17:57.055Z,52.40
2018-06-28T00:20:25.402Z,52.20
2018-06-28T00:22:53.738Z,52.30
2018-06-28T00:25:22.106Z,52.70
2018-06-28T00:27:50.453Z,53.00
2018-06-28T00:30:18.781Z,53.30
2018-06-28T00:32:47.128Z,53.50
2018-06-28T00:35:15.720Z,53.70
2018-06-28T00:37:44.061Z,53.80
2018-06-28T00:40:12.405Z,54.00
2018-06-28T00:42:40.742Z,54.60
2018-06-28T00:45:09.224Z,54.30
2018-06-28T00:47:37.561Z,54.60
2018-06-28T00:50:05.980Z,54.90
2018-06-28T00:52:34.393Z,55.20
2018-06-28T00:55:02.798Z,55.20
2018-06-28T00:57:31.198Z,55.40
2018-06-28T00:59:59.526Z,55.70
2018-06-28T01:02:27.871Z,56.00
2018-06-28T01:04:56.215Z,56.20
2018-06-28T01:07:24.645Z,56.30
2018-06-28T01:09:53.290Z,56.40
2018-06-28T01:12:21.697Z,56.80
2018-06-28T01:14:50.558Z,56.80
2018-06-28T01:17:18.929Z,56.90
2018-06-28T01:19:47.302Z,57.50
2018-06-28T01:22:15.754Z,57.50
2018-06-28T01:24:44.200Z,57.30
2018-06-28T01:27:12.613Z,57.40
2018-06-28T01:29:41.030Z,57.30
2018-06-28T01:32:09.414Z,57.50
2018-06-28T01:37:06.025Z,57.10
2018-06-28T01:39:34.393Z,57.30
2018-06-28T01:42:14.250Z,57.30
2018-06-28T01:44:42.654Z,57.20
2018-06-28T01:47:11.022Z,57.20
2018-06-28T01:49:39.410Z,57.40
2018-06-28T01:52:07.725Z,57.40
2018-06-28T01:54:36.062Z,57.60
2018-06-28T01:57:04.402Z,57.70
2018-06-28T01:59:32.739Z,57.70
2018-06-28T02:02:01.111Z,57.80
2018-06-28T02:04:29.479Z,57.80
2018-06-28T02:06:57.889Z,57.90
2018-06-28T02:09:26.227Z,57.90
2018-06-28T02:11:54.549Z,58.10
2018-06-28T02:14:23.609Z,58.20
2018-06-28T02:16:52.393Z,58.30
2018-06-28T02:19:20.768Z,58.40
2018-06-28T02:21:49.122Z,58.40
2018-06-28T02:24:17.736Z,58.60
2018-06-28T02:26:46.063Z,58.70
2018-06-28T02:29:14.462Z,58.80
2018-06-28T02:31:42.785Z,58.90
2018-06-28T02:34:11.140Z,59.10
2018-06-28T02:36:39.484Z,59.20
2018-06-28T02:39:08.438Z,59.30
2018-06-28T02:41:36.758Z,59.30
2018-06-28T02:44:05.116Z,59.30
2018-06-28T02:46:33.658Z,59.80
2018-06-28T02:49:01.998Z,59.30
2018-06-28T02:51:30.331Z,59.40
2018-06-28T02:53:58.682Z,59.40
2018-06-28T02:56:26.997Z,59.70
2018-06-28T02:58:55.470Z,59.70
2018-06-28T03:01:23.809Z,59.80
2018-06-28T03:03:52.146Z,59.90
2018-06-28T03:06:20.496Z,60.00
2018-06-28T03:08:48.838Z,60.00
2018-06-28T03:11:17.151Z,60.80
2018-06-28T03:13:45.536Z,60.10
2018-06-28T03:16:13.905Z,60.20
2018-06-28T03:18:42.262Z,60.30
2018-06-28T03:21:10.599Z,60.60
2018-06-28T03:23:38.945Z,61.50
2018-06-28T03:26:07.378Z,63.30
2018-06-28T03:28:35.794Z,63.50
2018-06-28T03:31:04.272Z,63.80
2018-06-28T03:33:32.498Z,63.90
2018-06-28T03:36:00.910Z,64.40
2018-06-28T03:38:29.666Z,64.40
2018-06-28T03:40:58.133Z,64.80
2018-06-28T03:43:26.455Z,65.20
2018-06-28T03:45:54.814Z,65.60
2018-06-28T03:48:23.135Z,65.90
2018-06-28T03:50:51.493Z,66.20
2018-06-28T03:53:19.839Z,66.40
2018-06-28T03:55:48.230Z,66.60
2018-06-28T03:58:16.597Z,67.20
2018-06-28T04:00:44.938Z,67.60
2018-06-28T04:03:13.280Z,67.80
2018-06-28T04:08:09.682Z,67.70
2018-06-28T04:10:38.018Z,67.60
2018-06-28T04:13:06.451Z,67.50
2018-06-28T04:15:34.767Z,67.40
2018-06-28T04:18:03.066Z,67.50
2018-06-28T04:20:31.441Z,67.30
2018-06-28T04:22:59.746Z,67.00
2018-06-28T04:25:28.071Z,66.20
2018-06-28T04:27:56.362Z,66.00
2018-06-28T04:32:52.738Z,65.00
2018-06-28T04:35:21.074Z,64.60
2018-06-28T04:37:49.413Z,64.30
2018-06-28T04:40:17.743Z,63.80
2018-06-28T04:42:46.034Z,63.30
2018-06-28T04:45:14.356Z,63.10
2018-06-28T04:47:42.670Z,62.60
2018-06-28T04:50:10.990Z,62.10
2018-06-28T04:55:07.338Z,61.40
2018-06-28T04:57:35.665Z,61.00
2018-06-28T05:00:04.086Z,60.80
2018-06-28T05:02:32.871Z,60.40
2018-06-28T05:05:01.241Z,60.10
2018-06-28T05:07:29.610Z,59.90
2018-06-28T05:09:58.110Z,59.50
2018-06-28T05:12:26.443Z,59.20
2018-06-28T05:14:55.239Z,58.90
2018-06-28T05:17:23.742Z,58.60
2018-06-28T05:19:52.211Z,58.20
2018-06-28T05:22:21.101Z,57.60
2018-06-28T05:27:17.613Z,56.80
2018-06-28T05:29:46.034Z,56.50
2018-06-28T05:32:14.405Z,56.20
2018-06-28T05:34:42.885Z,56.00
2018-06-28T05:37:11.162Z,55.60
2018-06-28T05:39:39.679Z,55.30
2018-06-28T05:42:08.074Z,55.10
2018-06-28T05:44:36.545Z,54.80
2018-06-28T05:47:05.031Z,55.30
2018-06-28T05:49:33.466Z,54.30
2018-06-28T05:52:01.855Z,54.00
2018-06-28T05:54:30.277Z,53.80
2018-06-28T05:56:58.668Z,53.40
2018-06-28T05:59:27.070Z,53.60
2018-06-28T06:01:55.603Z,52.90
2018-06-28T06:04:24.024Z,52.40
2018-06-28T06:06:52.476Z,52.10
2018-06-28T06:09:20.809Z,52.10
2018-06-28T06:11:49.260Z,51.90
2018-06-28T06:14:18.074Z,51.80
2018-06-28T06:16:46.427Z,51.60
2018-06-28T06:19:14.754Z,51.50
2018-06-28T06:21:43.072Z,51.20
2018-06-28T06:24:11.461Z,50.80
2018-06-28T06:26:39.859Z,50.70
2018-06-28T06:29:08.299Z,50.60
2018-06-28T06:31:37.389Z,50.30
2018-06-28T06:36:33.813Z,50.10
2018-06-28T06:39:02.317Z,50.10
2018-06-28T06:41:30.634Z,50.00
2018-06-28T06:43:59.246Z,49.90
2018-06-28T06:46:27.567Z,49.60
2018-06-28T06:48:56.185Z,50.10
2018-06-28T06:51:24.554Z,50.10
2018-06-28T06:53:52.886Z,49.80
2018-06-28T06:56:21.297Z,49.80
2018-06-28T06:58:49.703Z,49.50
2018-06-28T07:01:18.078Z,49.30
2018-06-28T07:03:47.364Z,48.90
2018-06-28T07:06:15.950Z,48.70
2018-06-28T07:08:44.884Z,48.50
2018-06-28T07:11:13.685Z,48.30
2018-06-28T07:13:42.366Z,47.90
2018-06-28T07:16:10.728Z,47.70
2018-06-28T07:18:39.058Z,47.80
2018-06-28T07:21:07.455Z,47.60
2018-06-28T07:23:35.834Z,47.40
2018-06-28T07:26:04.383Z,47.40
2018-06-28T07:28:32.828Z,47.40
2018-06-28T07:31:01.238Z,47.40
2018-06-28T07:33:29.600Z,47.20
2018-06-28T07:35:57.946Z,46.60
2018-06-28T07:38:26.319Z,47.30
2018-06-28T07:43:23.294Z,47.20
2018-06-28T07:45:51.717Z,46.70
2018-06-28T07:48:20.083Z,46.70
2018-06-28T07:50:48.470Z,46.40
2018-06-28T07:53:18.454Z,46.80
2018-06-28T07:55:47.485Z,46.40
2018-06-28T07:58:15.858Z,46.30
2018-06-28T08:00:44.677Z,46.00
2018-06-28T08:03:13.503Z,45.80
2018-06-28T08:05:42.242Z,45.00
2018-06-28T08:08:10.738Z,44.10
2018-06-28T08:10:39.162Z,43.90
2018-06-28T08:13:08.666Z,43.30
2018-06-28T08:15:37.256Z,43.10
2018-06-28T08:18:07.530Z,43.10
2018-06-28T08:20:36.261Z,43.10
2018-06-28T08:23:06.307Z,43.10
2018-06-28T08:25:34.898Z,42.90
2018-06-28T08:28:03.964Z,42.40
2018-06-28T08:30:32.666Z,42.20
2018-06-28T08:33:01.093Z,41.50
2018-06-28T08:35:29.672Z,41.40
2018-06-28T08:40:26.867Z,41.60
2018-06-28T08:42:55.271Z,41.80
2018-06-28T08:45:23.662Z,41.70
2018-06-28T08:47:52.046Z,41.30
2018-06-28T08:50:20.552Z,41.00
2018-06-28T08:52:49.070Z,40.50
2018-06-28T08:55:18.766Z,40.10
2018-06-28T08:57:47.287Z,39.80
2018-06-28T09:00:15.817Z,39.40
2018-06-28T09:02:44.287Z,39.50
2018-06-28T09:05:12.908Z,39.40
2018-06-28T09:07:41.291Z,38.70
2018-06-28T09:10:09.757Z,38.80
2018-06-28T09:12:38.165Z,39.00
2018-06-28T09:15:06.738Z,38.80
2018-06-28T09:17:35.375Z,38.60
2018-06-28T09:20:03.918Z,38.30
2018-06-28T09:22:32.416Z,39.40
2018-06-28T09:25:02.486Z,38.60
2018-06-28T09:27:31.273Z,38.60
2018-06-28T09:29:59.735Z,38.50
2018-06-28T09:32:28.230Z,38.50
2018-06-28T09:34:56.662Z,38.80
2018-06-28T09:37:25.034Z,38.70
2018-06-28T09:39:53.394Z,38.10
2018-06-28T09:42:21.796Z,38.50
2018-06-28T09:44:50.178Z,38.60
2018-06-28T09:47:18.605Z,38.50
2018-06-28T09:49:47.055Z,38.30
2018-06-28T09:52:15.410Z,37.60
2018-06-28T09:54:43.814Z,36.90
2018-06-28T09:57:12.201Z,36.60
2018-06-28T09:59:40.999Z,36.00
2018-06-28T10:02:09.374Z,35.10
2018-06-28T10:04:37.899Z,34.40
2018-06-28T10:07:06.865Z,34.30
2018-06-28T10:09:35.243Z,34.40
2018-06-28T10:12:03.602Z,33.60
2018-06-28T10:14:32.210Z,33.30
2018-06-28T10:17:00.553Z,32.70
2018-06-28T10:19:28.955Z,32.20
2018-06-28T10:21:57.395Z,32.40
2018-06-28T10:24:25.885Z,32.10
2018-06-28T10:26:54.206Z,31.80
2018-06-28T10:29:22.642Z,31.50
2018-06-28T10:31:51.021Z,30.10
2018-06-28T10:34:19.430Z,29.80
2018-06-28T10:36:47.894Z,29.80
2018-06-28T10:39:16.294Z,29.50
2018-06-28T10:41:44.755Z,29.10
2018-06-28T10:44:13.093Z,28.90
2018-06-28T10:49:09.583Z,28.80
2018-06-28T10:51:37.970Z,28.00
2018-06-28T10:54:06.421Z,27.60
2018-06-28T10:56:34.776Z,27.50
2018-06-28T10:59:03.141Z,27.50
2018-06-28T11:03:59.592Z,26.00
2018-06-28T11:06:28.002Z,26.40
2018-06-28T11:08:56.362Z,25.70
2018-06-28T11:11:24.875Z,26.20
2018-06-28T11:13:53.201Z,26.40
2018-06-28T11:16:21.711Z,25.40
2018-06-28T11:18:50.371Z,25.50
2018-06-28T11:21:18.802Z,25.50
2018-06-28T11:23:47.159Z,24.70
2018-06-28T11:28:43.682Z,25.10
2018-06-28T11:31:12.101Z,25.90
2018-06-28T11:33:40.434Z,25.60
2018-06-28T11:36:08.828Z,25.90
2018-06-28T11:38:37.242Z,26.50
2018-06-28T11:41:05.933Z,26.70
2018-06-28T11:43:34.594Z,26.60
2018-06-28T11:46:02.993Z,26.60
2018-06-28T11:48:31.410Z,26.20
2018-06-28T11:50:59.789Z,25.40
2018-06-28T11:53:28.187Z,24.90
2018-06-28T11:55:56.926Z,24.00
2018-06-28T11:58:25.892Z,25.00
2018-06-28T12:00:54.314Z,25.40
2018-06-28T12:03:22.837Z,25.70
2018-06-28T12:05:51.300Z,25.60
2018-06-28T12:08:19.915Z,25.40
2018-06-28T12:10:49.509Z,25.60
2018-06-28T12:13:18.867Z,25.20
2018-06-28T12:15:47.300Z,24.90
2018-06-28T12:18:15.782Z,25.10
2018-06-28T12:20:44.533Z,25.90
2018-06-28T12:23:13.392Z,26.90
2018-06-28T12:25:42.271Z,27.80
2018-06-28T12:28:10.835Z,29.00
2018-06-28T12:30:40.362Z,28.40
2018-06-28T12:33:10.260Z,29.50
2018-06-28T12:35:38.903Z,29.50
2018-06-28T12:38:07.890Z,29.60
2018-06-28T12:40:37.534Z,30.20
2018-06-28T12:43:05.931Z,31.70
2018-06-28T12:45:34.772Z,32.90
2018-06-28T12:48:10.243Z,34.50
2018-06-28T12:50:38.618Z,34.40
2018-06-28T12:53:10.173Z,35.00
2018-06-28T12:56:46.241Z,35.40
2018-06-28T12:59:16.284Z,35.70
2018-06-28T13:01:45.497Z,35.80
2018-06-28T13:04:14.144Z,35.00
2018-06-28T13:06:42.624Z,33.20
2018-06-28T13:09:14.216Z,31.60
2018-06-28T13:11:43.839Z,29.80
2018-06-28T13:14:12.315Z,27.80
2018-06-28T13:16:41.631Z,26.10
2018-06-28T13:19:10.134Z,24.50
2018-06-28T13:21:38.511Z,23.30
2018-06-28T13:24:07.000Z,22.00
2018-06-28T13:26:35.516Z,21.20
2018-06-28T13:29:04.062Z,21.60
2018-06-28T13:31:32.649Z,21.60
2018-06-28T13:34:01.095Z,22.00
2018-06-28T13:36:29.479Z,22.90
2018-06-28T13:38:57.910Z,22.80
2018-06-28T13:41:26.517Z,22.10
2018-06-28T13:43:54.755Z,20.60
2018-06-28T13:46:23.278Z,19.20
2018-06-28T13:48:51.555Z,18.10
2018-06-28T13:51:20.031Z,17.70
2018-06-28T13:53:48.415Z,17.10
2018-06-28T13:56:16.884Z,17.40
2018-06-28T13:58:45.262Z,19.00
2018-06-28T14:01:13.631Z,20.50
2018-06-28T14:03:42.006Z,21.90
2018-06-28T14:06:10.430Z,23.00
2018-06-28T14:08:38.769Z,24.30
2018-06-28T14:11:07.151Z,25.20
2018-06-28T14:13:35.488Z,25.90
2018-06-28T14:16:03.871Z,26.90
2018-06-28T14:18:32.274Z,27.60
2018-06-28T14:21:00.792Z,28.20
2018-06-28T14:23:29.140Z,28.80
2018-06-28T14:25:57.548Z,29.40
2018-06-28T14:28:25.894Z,30.00
2018-06-28T14:30:54.358Z,30.50
2018-06-28T14:33:22.719Z,31.30
2018-06-28T14:38:19.101Z,32.60
2018-06-28T14:40:47.454Z,32.60
2018-06-28T14:43:15.825Z,33.00
2018-06-28T14:45:44.208Z,33.20
2018-06-28T14:48:12.591Z,33.70
2018-06-28T14:50:43.943Z,34.40
2018-06-28T14:53:12.478Z,34.90
2018-06-28T14:55:40.864Z,35.00
2018-06-28T14:58:09.220Z,35.10
2018-06-28T15:00:37.593Z,34.90
2018-06-28T15:03:05.953Z,34.50
2018-06-28T15:05:34.320Z,33.80
2018-06-28T15:08:02.804Z,33.10
2018-06-28T15:10:31.178Z,32.20
2018-06-28T15:12:59.518Z,31.30
2018-06-28T15:15:27.974Z,29.70
2018-06-28T15:17:56.355Z,28.40
2018-06-28T15:20:24.764Z,28.00
2018-06-28T15:22:53.341Z,27.80
2018-06-28T15:25:21.780Z,28.20
2018-06-28T15:27:50.311Z,28.60
2018-06-28T15:30:18.641Z,29.00
2018-06-28T15:32:46.989Z,29.40
2018-06-28T15:37:43.673Z,30.00
2018-06-28T15:40:12.081Z,30.00
2018-06-28T15:42:40.494Z,30.00
2018-06-28T15:45:08.971Z,29.70
2018-06-28T15:47:37.382Z,27.80
2018-06-28T15:50:05.859Z,26.00
2018-06-28T15:52:34.259Z,24.00
2018-06-28T15:55:02.749Z,22.90
2018-06-28T15:57:31.128Z,21.60
2018-06-28T15:59:59.510Z,20.80
2018-06-28T16:04:56.049Z,19.00
2018-06-28T16:07:24.440Z,18.90
2018-06-28T16:09:52.882Z,19.90
2018-06-28T16:12:21.269Z,21.00
2018-06-28T16:14:49.631Z,22.20
2018-06-28T16:17:17.959Z,23.70
2018-06-28T16:19:46.314Z,25.00
2018-06-28T16:22:14.667Z,25.90
2018-06-28T16:24:43.133Z,26.50
2018-06-28T16:27:11.771Z,27.60
2018-06-28T16:29:40.272Z,28.50
2018-06-28T16:32:08.639Z,29.40
2018-06-28T16:34:37.098Z,30.10
2018-06-28T16:37:05.668Z,31.20
2018-06-28T16:39:34.099Z,31.90
2018-06-28T16:42:02.527Z,32.40
2018-06-28T16:44:30.872Z,32.80
2018-06-28T16:46:59.404Z,33.40
2018-06-28T16:49:27.770Z,33.80
2018-06-28T16:51:56.143Z,34.10
2018-06-28T16:54:24.494Z,34.60
2018-06-28T16:56:53.016Z,34.60
2018-06-28T16:59:21.425Z,34.60
2018-06-28T17:01:49.746Z,34.70
2018-06-28T17:04:18.093Z,34.90
2018-06-28T17:09:14.653Z,34.80
2018-06-28T17:11:43.052Z,34.90
2018-06-28T17:14:11.393Z,34.80
2018-06-28T17:16:39.877Z,34.60
2018-06-28T17:19:08.369Z,34.50
2018-06-28T17:21:36.787Z,34.50
2018-06-28T17:24:05.608Z,34.10
2018-06-28T17:26:33.978Z,33.30
2018-06-28T17:29:02.439Z,32.00
2018-06-28T17:31:30.789Z,30.00
2018-06-28T17:33:59.155Z,29.50
2018-06-28T17:36:27.581Z,29.70
2018-06-28T17:38:56.163Z,30.30
2018-06-28T17:41:24.587Z,31.30
2018-06-28T17:43:52.991Z,32.20
2018-06-28T17:46:21.413Z,32.80
2018-06-28T17:48:49.743Z,33.60
2018-06-28T17:51:18.185Z,34.10
2018-06-28T17:53:46.567Z,34.70
2018-06-28T17:56:15.082Z,35.20
2018-06-28T17:58:43.470Z,35.70
2018-06-28T18:01:13.306Z,36.20
2018-06-28T18:03:41.750Z,36.70
2018-06-28T18:06:10.097Z,37.10
2018-06-28T18:08:38.776Z,37.30
2018-06-28T18:11:07.520Z,37.70
2018-06-28T18:13:35.955Z,38.00
2018-06-28T18:16:04.394Z,38.20
2018-06-28T18:18:32.814Z,38.30
2018-06-28T18:21:01.214Z,38.60
2018-06-28T18:23:30.050Z,39.60
2018-06-28T18:25:58.618Z,43.40
2018-06-28T18:28:27.037Z,44.10
2018-06-28T18:30:55.386Z,45.00
2018-06-28T18:33:23.838Z,45.80
2018-06-28T18:35:52.764Z,46.40
2018-06-28T18:38:21.263Z,47.10
2018-06-28T18:40:49.730Z,47.60
2018-06-28T18:43:18.191Z,48.30
2018-06-28T18:45:47.028Z,48.80
2018-06-28T18:48:15.663Z,49.50
2018-06-28T18:50:44.130Z,49.90
2018-06-28T18:53:12.460Z,50.20
2018-06-28T18:55:40.786Z,50.60
2018-06-28T18:58:09.306Z,51.60
2018-06-28T19:00:37.760Z,51.30
2018-06-28T19:03:06.223Z,51.60
2018-06-28T19:05:34.625Z,51.70
2018-06-28T19:08:03.179Z,51.90
2018-06-28T19:10:37.097Z,52.10
2018-06-28T19:13:05.521Z,52.30
2018-06-28T19:15:39.426Z,52.40
2018-06-28T19:18:08.019Z,52.60
2018-06-28T19:20:36.468Z,52.90
2018-06-28T19:23:10.298Z,53.10
2018-06-28T19:25:38.852Z,53.30
2018-06-28T19:30:41.421Z,54.90
2018-06-28T19:33:09.788Z,54.40
2018-06-28T19:35:38.191Z,54.70
2018-06-28T19:38:06.690Z,55.00
2018-06-28T19:40:40.592Z,55.00
2018-06-28T19:43:09.842Z,55.20
2018-06-28T19:45:38.224Z,55.30
2018-06-28T19:48:06.641Z,55.60
2018-06-28T19:50:40.341Z,55.60
2018-06-28T19:53:14.502Z,55.80
2018-06-28T19:55:43.030Z,56.00
2018-06-28T19:58:11.454Z,56.10
2018-06-28T20:00:45.142Z,56.30
2018-06-28T20:03:18.859Z,56.40
2018-06-28T20:05:47.525Z,56.50
2018-06-28T20:08:16.004Z,56.60
2018-06-28T20:10:44.415Z,56.80
2018-06-28T20:13:18.263Z,56.90
2018-06-28T20:15:57.526Z,56.50
2018-06-28T20:18:31.093Z,56.90
2018-06-28T20:21:00.944Z,57.50
2018-06-28T20:23:29.302Z,57.60
2018-06-28T20:25:57.662Z,58.00
2018-06-28T20:28:31.853Z,58.10
2018-06-28T20:36:02.215Z,58.70
2018-06-28T20:38:30.979Z,59.60
2018-06-28T20:40:59.654Z,59.00
2018-06-28T20:43:28.758Z,59.20
2018-06-28T20:45:57.158Z,59.20
2018-06-28T20:48:25.506Z,59.40
2018-06-28T20:50:53.919Z,59.60
2018-06-28T20:53:22.410Z,59.90
2018-06-28T20:55:50.619Z,60.20
2018-06-28T20:58:18.953Z,60.20
2018-06-28T21:00:47.337Z,60.50
2018-06-28T21:03:15.698Z,60.60
2018-06-28T21:05:44.067Z,60.60
2018-06-28T21:08:12.429Z,60.60
2018-06-28T21:10:40.787Z,60.80
2018-06-28T21:13:09.119Z,60.90
2018-06-28T21:59:19.647Z,61.10
2018-06-28T22:01:53.791Z,66.30
2018-06-28T22:04:22.158Z,66.00
2018-06-28T22:06:51.461Z,66.10
2018-06-28T22:09:20.842Z,66.40
2018-06-28T22:11:49.342Z,66.50
2018-06-28T22:14:18.010Z,67.10
2018-06-28T22:16:46.308Z,67.50
2018-06-28T22:19:14.646Z,68.00
2018-06-28T22:21:44.161Z,68.60
2018-06-28T22:24:12.462Z,68.90
2018-06-28T22:26:40.802Z,69.00
2018-06-28T22:29:09.168Z,69.50
2018-06-28T22:31:37.522Z,69.60
2018-06-28T22:34:06.313Z,69.60
2018-06-28T22:36:34.636Z,69.50
2018-06-28T22:41:36.627Z,69.50
2018-06-28T22:44:05.156Z,69.70
2018-06-28T22:46:36.027Z,69.60
2018-06-28T22:49:04.834Z,69.30
2018-06-28T22:51:33.338Z,68.90
2018-06-28T22:54:04.093Z,68.40
2018-06-28T22:56:34.759Z,68.20
2018-06-28T22:59:04.863Z,67.80
2018-06-28T23:01:33.294Z,67.20
2018-06-28T23:04:01.635Z,67.70
2018-06-28T23:06:29.994Z,67.00
2018-06-28T23:08:58.315Z,66.70
2018-06-28T23:11:26.673Z,66.60
2018-06-28T23:13:55.053Z,66.80
2018-06-28T23:16:23.402Z,66.70
2018-06-28T23:18:51.773Z,66.60
2018-06-28T23:21:20.118Z,67.00
2018-06-28T23:23:48.449Z,67.10
2018-06-28T23:26:16.784Z,67.60
2018-06-28T23:28:45.122Z,67.90
2018-06-28T23:31:13.482Z,67.90
2018-06-28T23:33:41.879Z,68.00
2018-06-28T23:36:10.207Z,67.80
2018-06-28T23:38:38.566Z,68.10
2018-06-28T23:41:06.984Z,68.20
2018-06-28T23:43:35.323Z,68.30
2018-06-28T23:46:03.882Z,68.50
2018-06-28T23:48:32.222Z,68.80
2018-06-28T23:51:00.543Z,68.70
2018-06-28T23:53:28.861Z,68.70
2018-06-28T23:55:57.194Z,68.20
2018-06-28T23:58:25.547Z,68.10
